This is the latest recevied weather packets stored in our database for station/object K5OLV. If no packets are shown the sender has not sent any weather packets the latest 10 day(s).
| Time | Temp. | Humidity | Pressure | Rain* | Wind** | Luminosity | Snow |
|---|---|---|---|---|---|---|---|
| 1788392850 | 27.22° C | 85% | 1016.1 hPa | 0 mm | - | 12 W/m² | - |
| 1788392549 | 27.22° C | 85% | 1016.1 hPa | 0 mm | - | 16 W/m² | - |
| 1788392244 | 27.22° C | 85% | 1016.2 hPa | 0 mm | - | 19 W/m² | - |
| 1788391944 | 27.78° C | 87% | 1016.2 hPa | 0 mm | - | 22 W/m² | - |
| 1788391642 | 28.33° C | 87% | 1016.3 hPa | 0 mm | - | 25 W/m² | - |
| 1788391337 | 28.33° C | 86% | 1016.1 hPa | 0 mm | - | 29 W/m² | - |
| 1788391032 | 28.33° C | 85% | 1016.2 hPa | 0 mm | - | 32 W/m² | - |
| 1788390732 | 28.89° C | 84% | 1016.2 hPa | 0 mm | - | 34 W/m² | - |
| 1788390427 | 28.89° C | 83% | 1016.1 hPa | 0 mm | - | 38 W/m² | - |
| 1788390126 | 28.89° C | 79% | 1016.2 hPa | 0 mm | - | 39 W/m² | - |
| 1788389821 | 29.44° C | 77% | 1016.1 hPa | 0 mm | - | 41 W/m² | - |
| 1788389521 | 29.44° C | 76% | 1016.1 hPa | 0 mm | - | 45 W/m² | - |
| 1788389219 | 30° C | 77% | 1016 hPa | 0 mm | - | 74 W/m² | - |
| 1788388915 | 30.56° C | 75% | 1016.2 hPa | 0 mm | - | 59 W/m² | - |
| 1788388611 | 31.11° C | 72% | 1016.2 hPa | 0 mm | - | 96 W/m² | - |
| 1788388310 | 31.11° C | 71% | 1016.2 hPa | 0 mm | - | 81 W/m² | - |
| 1788388009 | 31.67° C | 72% | 1016.2 hPa | 0 mm | - | 70 W/m² | - |
| 1788387708 | 31.11° C | 74% | 1016.3 hPa | 0 mm | - | 100 W/m² | - |
| 1788387403 | 30.56° C | 71% | 1016.3 hPa | 0 mm | - | 146 W/m² | - |
| 1788387098 | 30.56° C | 68% | 1016.4 hPa | 0 mm | - | 170 W/m² | - |
| 1788386793 | 30.56° C | 70% | 1016.3 hPa | 0 mm | - | 226 W/m² | - |
| 1788386493 | 30.56° C | 68% | 1016.3 hPa | 0 mm | - | 241 W/m² | - |
| 1788386189 | 29.44° C | 70% | 1016.2 hPa | 0 mm | - | 262 W/m² | - |
| 1788385884 | 29.44° C | 77% | 1016.5 hPa | 0 mm | - | 102 W/m² | - |
| 1788385579 | 29.44° C | 75% | 1016.4 hPa | 0 mm | - | 75 W/m² | - |
* Rain latest hour (hover to see other rain measurements)
** Current wind speed in m/s (hover to see current wind gust speed)